Mountain View, CA (94040)

12:56 PM PDT on May 22, 2015 (GMT -0700)
Cuesta Park | | Change Station
CLOSE
Current Station
Personal Weather Station
Location: Mountain View, CA
Elevation: 141 ft
Nearby Weather Stations

Elev 141 ft 37.37 °N, 122.09 °W | Updated 8 seconds ago

Overcast
Overcast
67.5 °F
Feels Like 67.5 °F
N
0.2
Wind Variable Wind from SSW
Gusts 2.5 mph

Today
High -- | Low -- °F
--% Chance of Precip.
Yesterday
High -- | Low -- °F
Precip. -- in
5:54 AM 8:16 PM
Waxing Crescent, 23% visible
Pressure 30.04 in
Visibility 10.0 miles
Clouds Mostly Cloudy 2900 ft
Overcast 3600 ft
Dew Point 50 °F
Humidity 54%
Rainfall 0.00 in
Snow Depth Not available.
UV 3 out of 12
Pollen 5.80 out of 12
Air Quality Not available.
Flu Activity Sporadic
SPECI KNUQ 221935Z 01005KT 10SM BKN029 OVC036 18/11 A3004 RMK AO2

More Conditions Fewer Conditions

Pressure 30.04 in
Visibility 10.0 miles
Clouds Mostly Cloudy 2900 ft
Overcast 3600 ft
Dew Point 50 °F
Humidity 54%
Rainfall 0.00 in
Snow Depth Not available.
UV 3 out of 12
Pollen 5.80 out of 12
Air Quality Not available.
Flu Activity Sporadic
SPECI KNUQ 221935Z 01005KT 10SM BKN029 OVC036 18/11 A3004 RMK AO2

More Conditions Fewer Conditions

10-Day Weather Forecast

Almanac

Astronomy

May. 22, 2015 Rise Set
Actual Time
Civil Twilight
Nautical Twilight
Astronomical Twilight
Moon
Length of Visible Light
Length of Day
Tomorrow will be .
, % of the Moon is Illuminated

Today's Extremes

State Highs State Lows

Community

WunderPhotos

Upload Photos

1,823,279 photos uploaded!

WunderBlogs® & News

Nearby

Air Quality

  Air Quality AQ Index Pollutant
Not available.

Snow Depth

Station Depth Elevation

Earthquake Activity

City Distance Mag. Time & Date
Minimum magnitude displayed is 2.5.

Coastal Water Temperatures

Place Temperature

Stations

Nearby Weather Stations

Station Location Temp. Windchill Dew Point Humidity Wind Precip. Elev Updated Type